createdAt,value
2022-07-28T00:00:44.113Z,26.75
2022-07-28T00:03:10.841Z,26.14
2022-07-28T00:05:37.624Z,26.02
2022-07-28T00:08:05.479Z,25.21
2022-07-28T00:10:32.472Z,24.48
2022-07-28T00:13:00.077Z,24.42
2022-07-28T00:15:27.820Z,24.44
2022-07-28T00:17:54.527Z,24.92
2022-07-28T00:20:21.480Z,24.97
2022-07-28T00:22:48.263Z,24.51
2022-07-28T00:25:15.368Z,25.10
2022-07-28T00:27:42.121Z,24.54
2022-07-28T00:30:10.165Z,24.22
2022-07-28T00:32:37.797Z,25.01
2022-07-28T00:35:05.184Z,23.74
2022-07-28T00:37:35.098Z,23.85
2022-07-28T00:40:02.391Z,24.34
2022-07-28T00:42:29.066Z,24.41
2022-07-28T00:44:55.748Z,24.39
2022-07-28T00:47:22.521Z,24.40
2022-07-28T00:49:50.437Z,24.45
2022-07-28T00:52:18.410Z,24.61
2022-07-28T00:54:45.171Z,24.37
2022-07-28T00:57:11.933Z,23.78
2022-07-28T00:59:38.645Z,23.78
2022-07-28T01:02:05.462Z,24.03
2022-07-28T01:04:32.490Z,23.95
2022-07-28T01:07:17.304Z,24.20
2022-07-28T01:10:13.870Z,24.36
2022-07-28T01:12:51.147Z,23.77
2022-07-28T01:15:29.175Z,23.31
2022-07-28T01:18:20.400Z,23.53
2022-07-28T01:20:49.904Z,23.95
2022-07-28T01:23:31.451Z,23.90
2022-07-28T01:26:34.067Z,24.30
2022-07-28T01:29:22.643Z,24.63
2022-07-28T01:31:59.789Z,24.66
2022-07-28T01:35:11.702Z,24.26
2022-07-28T01:37:51.902Z,23.13
2022-07-28T01:40:22.701Z,22.99
2022-07-28T01:42:54.245Z,22.70
2022-07-28T01:45:21.809Z,23.20
2022-07-28T01:47:50.020Z,23.70
2022-07-28T01:50:21.324Z,23.97
2022-07-28T01:52:49.925Z,24.17
2022-07-28T01:55:20.439Z,24.08
2022-07-28T01:57:49.253Z,24.50
2022-07-28T02:00:17.835Z,24.22
2022-07-28T02:02:46.980Z,23.48
2022-07-28T02:05:17.123Z,23.46
2022-07-28T02:07:49.538Z,23.44
2022-07-28T02:10:18.510Z,23.86
2022-07-28T02:12:48.813Z,23.94
2022-07-28T02:15:16.131Z,24.08
2022-07-28T02:17:47.060Z,24.08
2022-07-28T02:20:16.444Z,23.81
2022-07-28T02:22:45.515Z,23.48
2022-07-28T02:25:19.775Z,23.43
2022-07-28T02:27:58.495Z,23.45
2022-07-28T02:30:37.290Z,23.48
2022-07-28T02:33:24.439Z,23.39
2022-07-28T02:36:14.225Z,23.19
2022-07-28T02:38:46.648Z,23.60
2022-07-28T02:41:25.760Z,23.67
2022-07-28T02:43:56.841Z,23.55
2022-07-28T02:46:29.340Z,23.26
2022-07-28T02:49:03.126Z,23.48
2022-07-28T02:51:31.884Z,23.53
2022-07-28T02:53:59.673Z,23.99
2022-07-28T02:56:27.297Z,22.99
2022-07-28T02:58:54.956Z,23.21
2022-07-28T03:01:23.650Z,23.59
2022-07-28T03:03:50.997Z,23.94
2022-07-28T03:06:28.415Z,23.78
2022-07-28T03:08:56.406Z,23.64
2022-07-28T03:11:23.141Z,23.78
2022-07-28T03:13:49.801Z,22.83
2022-07-28T03:16:16.544Z,23.00
2022-07-28T03:18:43.230Z,22.58
2022-07-28T03:21:09.865Z,22.64
2022-07-28T03:23:45.738Z,22.47
2022-07-28T03:26:37.304Z,22.37
2022-07-28T03:29:04.282Z,23.28
2022-07-28T03:31:33.841Z,22.86
2022-07-28T03:34:00.694Z,22.59
2022-07-28T03:36:35.826Z,22.68
2022-07-28T03:39:06.417Z,23.19
2022-07-28T03:41:34.481Z,23.64
2022-07-28T03:44:02.766Z,23.41
2022-07-28T03:46:29.732Z,23.74
2022-07-28T03:48:56.508Z,23.44
2022-07-28T03:51:25.595Z,23.40
2022-07-28T03:53:52.312Z,23.40
2022-07-28T03:56:19.538Z,22.82
2022-07-28T03:58:46.230Z,22.36
2022-07-28T04:01:13.012Z,22.39
2022-07-28T04:03:44.042Z,22.65
2022-07-28T04:06:15.633Z,22.82
2022-07-28T04:08:44.144Z,23.00
2022-07-28T04:11:10.831Z,23.17
2022-07-28T04:13:37.611Z,23.19
2022-07-28T04:16:05.892Z,22.54
2022-07-28T04:18:33.063Z,22.86
2022-07-28T04:21:00.725Z,22.59
2022-07-28T04:23:28.276Z,22.76
2022-07-28T04:25:55.439Z,22.12
2022-07-28T04:28:22.281Z,22.09
2022-07-28T04:30:48.935Z,21.84
2022-07-28T04:33:15.846Z,21.72
2022-07-28T04:35:42.534Z,22.33
2022-07-28T04:38:09.233Z,22.86
2022-07-28T04:40:35.927Z,22.50
2022-07-28T04:43:04.064Z,22.37
2022-07-28T04:45:30.987Z,23.18
2022-07-28T04:47:57.746Z,23.54
2022-07-28T04:50:24.617Z,22.95
2022-07-28T04:52:51.292Z,22.73
2022-07-28T04:55:18.282Z,23.31
2022-07-28T04:57:45.137Z,23.36
2022-07-28T05:00:13.868Z,23.37
2022-07-28T05:02:42.001Z,23.61
2022-07-28T05:05:09.978Z,23.95
2022-07-28T05:07:38.300Z,24.01
2022-07-28T05:10:06.742Z,23.54
2022-07-28T05:12:33.411Z,23.72
2022-07-28T05:15:00.275Z,23.56
2022-07-28T05:17:27.361Z,23.39
2022-07-28T05:19:54.198Z,23.62
2022-07-28T05:22:20.878Z,23.32
2022-07-28T05:24:47.618Z,23.29
2022-07-28T05:27:14.316Z,23.28
2022-07-28T05:29:47.723Z,23.54
2022-07-28T05:32:17.023Z,23.87
2022-07-28T05:34:44.614Z,24.10
2022-07-28T05:37:11.364Z,24.30
2022-07-28T05:39:38.063Z,23.56
2022-07-28T05:42:04.948Z,23.46
2022-07-28T05:44:37.250Z,24.01
2022-07-28T05:47:04.894Z,24.35
2022-07-28T05:49:31.631Z,24.12
2022-07-28T05:51:58.280Z,24.19
2022-07-28T05:54:25.356Z,24.15
2022-07-28T05:56:52.737Z,24.38
2022-07-28T05:59:19.699Z,24.50
2022-07-28T06:01:46.693Z,24.45
2022-07-28T06:04:29.418Z,24.20
2022-07-28T06:06:57.057Z,24.17
2022-07-28T06:09:23.783Z,24.44
2022-07-28T06:11:50.904Z,24.32
2022-07-28T06:14:18.748Z,24.52
2022-07-28T06:16:50.990Z,24.54
2022-07-28T06:19:18.673Z,24.75
2022-07-28T06:21:45.573Z,24.16
2022-07-28T06:24:12.601Z,24.24
2022-07-28T06:26:44.367Z,24.35
2022-07-28T06:29:12.524Z,24.69
2022-07-28T06:31:39.517Z,24.41
2022-07-28T06:34:06.621Z,24.62
2022-07-28T06:36:33.609Z,25.04
2022-07-28T06:39:00.287Z,25.31
2022-07-28T06:41:27.625Z,25.14
2022-07-28T06:43:54.327Z,24.95
2022-07-28T06:46:21.192Z,25.07
2022-07-28T06:48:47.933Z,25.25
2022-07-28T06:51:19.050Z,25.29
2022-07-28T06:53:48.426Z,25.51
2022-07-28T06:56:15.758Z,25.24
2022-07-28T06:58:47.066Z,25.21
2022-07-28T07:01:15.072Z,25.40
2022-07-28T07:03:43.048Z,25.01
2022-07-28T07:06:11.096Z,25.54
2022-07-28T07:08:38.528Z,25.65
2022-07-28T07:11:05.335Z,25.04
2022-07-28T07:13:33.234Z,25.50
2022-07-28T07:16:00.379Z,25.40
2022-07-28T07:18:27.281Z,25.93
2022-07-28T07:20:54.842Z,25.64
2022-07-28T07:23:21.605Z,25.58
2022-07-28T07:25:48.558Z,25.52
2022-07-28T07:28:15.227Z,25.59
2022-07-28T07:30:41.971Z,25.88
2022-07-28T07:33:10.749Z,25.51
2022-07-28T07:35:38.151Z,25.27
2022-07-28T07:38:05.040Z,25.56
2022-07-28T07:40:32.673Z,25.79
2022-07-28T07:42:59.339Z,25.89
2022-07-28T07:45:26.161Z,25.67
2022-07-28T07:47:53.181Z,25.97
2022-07-28T07:50:19.959Z,26.07
2022-07-28T07:52:46.648Z,26.21
2022-07-28T07:55:13.371Z,26.50
2022-07-28T07:57:40.574Z,26.38
2022-07-28T08:00:07.898Z,26.17
2022-07-28T08:02:54.630Z,26.02
2022-07-28T08:05:21.382Z,26.10
2022-07-28T08:08:02.290Z,26.38
2022-07-28T08:10:29.095Z,26.68
2022-07-28T08:12:55.760Z,26.41
2022-07-28T08:15:22.588Z,25.98
2022-07-28T08:17:49.236Z,25.95
2022-07-28T08:20:15.927Z,26.43
2022-07-28T08:22:54.910Z,25.63
2022-07-28T08:25:22.551Z,26.77
2022-07-28T08:27:50.363Z,27.02
2022-07-28T08:30:23.086Z,26.60
2022-07-28T08:32:56.355Z,26.36
2022-07-28T08:35:33.976Z,26.43
2022-07-28T08:38:02.788Z,26.41
2022-07-28T08:40:32.350Z,26.13
2022-07-28T08:43:06.569Z,26.39
2022-07-28T08:45:37.038Z,26.69
2022-07-28T08:48:09.488Z,27.03
2022-07-28T08:50:38.464Z,27.31
2022-07-28T08:53:06.907Z,26.87
2022-07-28T08:55:36.008Z,27.52
2022-07-28T08:58:04.298Z,27.36
2022-07-28T09:00:31.189Z,26.97
2022-07-28T09:03:00.214Z,26.74
2022-07-28T09:05:27.731Z,27.37
2022-07-28T09:07:55.670Z,27.13
2022-07-28T09:10:23.421Z,27.26
2022-07-28T09:12:50.758Z,26.95
2022-07-28T09:15:17.429Z,27.41
2022-07-28T09:17:44.178Z,26.90
2022-07-28T09:20:11.996Z,27.40
2022-07-28T09:23:41.680Z,26.98
2022-07-28T09:26:12.595Z,27.02
2022-07-28T09:28:59.052Z,26.83
2022-07-28T09:31:28.242Z,27.10
2022-07-28T09:33:56.067Z,27.35
2022-07-28T09:36:23.305Z,27.20
2022-07-28T09:38:50.180Z,26.81
2022-07-28T09:41:19.762Z,26.26
2022-07-28T09:43:48.789Z,27.03
2022-07-28T09:46:23.372Z,27.39
2022-07-28T09:48:50.559Z,27.75
2022-07-28T09:51:19.699Z,27.07
2022-07-28T09:53:46.473Z,27.55
2022-07-28T09:56:13.514Z,26.96
2022-07-28T09:58:41.612Z,27.17
2022-07-28T10:01:12.861Z,26.15
2022-07-28T10:03:41.732Z,26.93
2022-07-28T10:06:13.974Z,26.89
2022-07-28T10:08:45.678Z,26.89
2022-07-28T10:11:14.288Z,26.95
2022-07-28T10:14:04.595Z,27.66
2022-07-28T10:16:33.768Z,27.49
2022-07-28T10:19:04.084Z,27.14
2022-07-28T10:21:33.747Z,27.70
2022-07-28T10:24:05.138Z,27.50
2022-07-28T10:26:33.396Z,27.82
2022-07-28T10:29:04.905Z,27.05
2022-07-28T10:31:43.515Z,27.65
2022-07-28T10:34:17.602Z,27.33
2022-07-28T10:36:45.060Z,27.69
2022-07-28T10:39:20.081Z,28.09
2022-07-28T10:41:47.189Z,27.58
2022-07-28T10:44:14.746Z,28.46
2022-07-28T10:46:43.413Z,27.65
2022-07-28T10:49:11.608Z,28.74
2022-07-28T10:52:01.155Z,27.82
2022-07-28T10:54:36.499Z,27.56
2022-07-28T10:57:06.383Z,27.59
2022-07-28T10:59:55.824Z,27.96
2022-07-28T11:02:56.956Z,28.24
2022-07-28T11:05:31.394Z,27.81
2022-07-28T11:08:01.303Z,27.66
2022-07-28T11:10:29.880Z,27.75
2022-07-28T11:12:58.788Z,28.73
2022-07-28T11:15:35.772Z,29.08
2022-07-28T11:18:06.853Z,29.33
2022-07-28T11:20:50.974Z,28.94
2022-07-28T11:23:46.268Z,28.95
2022-07-28T11:26:22.547Z,29.12
2022-07-28T11:29:03.728Z,28.73
2022-07-28T11:31:48.152Z,28.94
2022-07-28T11:34:22.970Z,29.02
2022-07-28T11:36:59.005Z,29.62
2022-07-28T11:39:27.420Z,29.88
2022-07-28T11:41:54.329Z,30.18
2022-07-28T11:44:31.765Z,29.57
2022-07-28T11:47:22.677Z,29.45
2022-07-28T11:50:12.944Z,29.96
2022-07-28T11:52:51.947Z,29.89
2022-07-28T11:55:19.249Z,30.11
2022-07-28T11:57:52.025Z,29.63
2022-07-28T12:00:22.406Z,30.03
2022-07-28T12:02:50.953Z,29.89
2022-07-28T12:05:17.956Z,30.38
2022-07-28T12:07:55.592Z,30.26
2022-07-28T12:10:53.185Z,30.42
2022-07-28T12:13:25.751Z,29.92
2022-07-28T12:15:53.055Z,29.97
2022-07-28T12:18:19.763Z,29.69
2022-07-28T12:20:48.406Z,29.81
2022-07-28T12:23:15.475Z,29.99
2022-07-28T12:25:49.296Z,30.31
2022-07-28T12:28:22.689Z,29.99
2022-07-28T12:30:51.977Z,30.08
2022-07-28T12:33:29.166Z,30.12
2022-07-28T12:35:59.361Z,30.60
2022-07-28T12:38:28.782Z,30.34
2022-07-28T12:40:55.672Z,30.45
2022-07-28T12:43:30.453Z,30.31
2022-07-28T12:45:57.473Z,30.27
2022-07-28T12:48:24.238Z,30.15
2022-07-28T12:50:53.704Z,30.70
2022-07-28T12:53:22.851Z,30.76
2022-07-28T12:55:59.093Z,30.44
2022-07-28T12:58:27.599Z,30.75
2022-07-28T13:00:55.680Z,31.05
2022-07-28T13:03:27.955Z,31.04
2022-07-28T13:06:02.331Z,30.17
2022-07-28T13:08:37.861Z,30.45
2022-07-28T13:44:32.897Z,30.65
2022-07-28T13:47:00.789Z,30.24
2022-07-28T13:49:29.062Z,31.37
2022-07-28T13:51:55.918Z,31.34
2022-07-28T13:54:24.061Z,31.04
2022-07-28T13:56:50.759Z,31.64
2022-07-28T13:59:17.598Z,31.37
2022-07-28T14:01:44.491Z,31.18
2022-07-28T14:04:17.436Z,30.79
2022-07-28T14:06:45.458Z,30.69
2022-07-28T14:09:13.014Z,30.60
2022-07-28T14:11:49.908Z,30.52
2022-07-28T14:14:25.325Z,29.79
2022-07-28T14:16:54.324Z,29.97
2022-07-28T14:19:38.356Z,30.45
2022-07-28T14:22:12.879Z,29.53
2022-07-28T14:24:41.954Z,29.37
2022-07-28T14:27:08.610Z,29.57
2022-07-28T14:29:37.405Z,29.76
2022-07-28T14:32:04.322Z,30.04
2022-07-28T14:34:30.960Z,29.21
2022-07-28T14:36:57.669Z,29.34
2022-07-28T14:39:24.350Z,29.28
2022-07-28T14:41:51.047Z,28.67
2022-07-28T14:44:23.841Z,29.73
2022-07-28T14:46:51.570Z,29.54
2022-07-28T14:49:18.407Z,29.92
2022-07-28T14:51:45.119Z,29.79
2022-07-28T14:54:12.404Z,29.94
2022-07-28T14:56:39.273Z,29.54
2022-07-28T14:59:06.400Z,29.76
2022-07-28T15:01:36.475Z,29.11
2022-07-28T15:04:04.220Z,29.58
2022-07-28T15:06:31.144Z,29.10
2022-07-28T15:08:58.480Z,29.65
2022-07-28T15:11:25.729Z,29.83
2022-07-28T15:13:52.352Z,29.80
2022-07-28T15:16:19.155Z,29.87
2022-07-28T15:18:45.884Z,29.18
2022-07-28T15:21:16.658Z,29.44
2022-07-28T15:23:44.184Z,29.57
2022-07-28T15:26:11.659Z,29.35
2022-07-28T15:28:38.690Z,29.46
2022-07-28T15:31:08.515Z,29.36
2022-07-28T15:33:42.497Z,29.12
2022-07-28T15:36:14.718Z,29.22
2022-07-28T15:38:41.661Z,29.39
2022-07-28T15:41:14.930Z,28.85
2022-07-28T15:43:41.790Z,28.90
2022-07-28T15:46:11.753Z,28.16
2022-07-28T15:48:40.496Z,28.88
2022-07-28T15:51:08.213Z,29.10
2022-07-28T15:53:36.800Z,29.50
2022-07-28T15:56:04.669Z,29.04
2022-07-28T15:58:31.482Z,29.37
2022-07-28T16:01:01.007Z,29.05
2022-07-28T16:03:29.519Z,29.34
2022-07-28T16:05:56.661Z,28.73
2022-07-28T16:08:23.525Z,29.09
2022-07-28T16:10:52.618Z,29.30
2022-07-28T16:13:31.213Z,29.32
2022-07-28T16:16:12.932Z,29.50
2022-07-28T16:18:42.913Z,29.65
2022-07-28T16:21:11.030Z,29.37
2022-07-28T16:23:37.818Z,29.36
2022-07-28T16:26:07.911Z,29.71
2022-07-28T16:28:35.334Z,29.68
2022-07-28T16:31:02.135Z,29.53
2022-07-28T16:33:33.670Z,29.40
2022-07-28T16:36:01.381Z,29.50
2022-07-28T16:38:28.067Z,29.15
2022-07-28T16:40:54.718Z,29.38
2022-07-28T16:43:21.404Z,29.31
2022-07-28T16:45:48.133Z,28.95
2022-07-28T16:48:15.331Z,29.04
2022-07-28T16:50:45.858Z,29.19
2022-07-28T16:53:13.847Z,28.93
2022-07-28T16:55:42.325Z,28.79
2022-07-28T16:58:09.201Z,28.92
2022-07-28T17:00:36.104Z,28.96
2022-07-28T17:03:02.747Z,28.75
2022-07-28T17:05:29.420Z,28.56
2022-07-28T17:07:56.051Z,27.41
2022-07-28T17:10:27.248Z,27.78
2022-07-28T17:12:54.712Z,28.19
2022-07-28T17:15:22.584Z,27.65
2022-07-28T17:17:50.916Z,27.34
2022-07-28T17:20:17.697Z,27.78
2022-07-28T17:22:44.908Z,27.67
2022-07-28T17:25:35.578Z,27.53
2022-07-28T17:27:58.707Z,27.17
2022-07-28T17:30:26.104Z,26.90
2022-07-28T17:32:58.129Z,26.45
2022-07-28T17:35:34.111Z,26.20
2022-07-28T17:38:05.268Z,25.48
2022-07-28T17:40:31.939Z,25.33
2022-07-28T17:42:58.578Z,25.26
2022-07-28T17:45:25.373Z,24.11
2022-07-28T17:47:52.188Z,24.32
2022-07-28T17:50:18.978Z,25.07
2022-07-28T17:52:46.428Z,24.98
2022-07-28T17:55:35.688Z,25.20
2022-07-28T17:58:28.161Z,25.11
2022-07-28T18:01:10.946Z,25.21
2022-07-28T18:03:58.832Z,25.40
2022-07-28T18:06:35.728Z,25.74
2022-07-28T18:09:06.522Z,25.72
2022-07-28T18:11:36.909Z,25.55
2022-07-28T18:14:22.432Z,25.06
2022-07-28T18:16:49.094Z,24.80
2022-07-28T18:19:15.741Z,24.51
2022-07-28T18:21:43.696Z,24.57
2022-07-28T18:24:10.324Z,24.79
2022-07-28T18:26:36.921Z,24.68
2022-07-28T18:29:03.636Z,24.71
2022-07-28T18:31:30.510Z,24.75
2022-07-28T18:33:57.254Z,24.77
2022-07-28T18:36:23.946Z,24.80
2022-07-28T18:38:50.599Z,24.90
2022-07-28T18:41:17.393Z,25.20
2022-07-28T18:43:44.043Z,25.24
2022-07-28T18:46:10.796Z,24.92
2022-07-28T18:48:38.194Z,25.12
2022-07-28T18:51:04.962Z,25.17
2022-07-28T18:53:31.632Z,24.85
2022-07-28T18:55:58.340Z,23.82
2022-07-28T18:58:25.667Z,24.68
2022-07-28T19:00:52.512Z,24.91
2022-07-28T19:03:19.263Z,24.48
2022-07-28T19:05:46.517Z,23.86
2022-07-28T19:08:13.429Z,24.21
2022-07-28T19:10:40.274Z,24.48
2022-07-28T19:13:09.146Z,24.60
2022-07-28T19:15:40.741Z,24.56
2022-07-28T19:18:11.529Z,23.60
2022-07-28T19:20:44.246Z,23.56
2022-07-28T19:23:11.022Z,23.59
2022-07-28T19:25:39.346Z,23.68
2022-07-28T19:28:06.432Z,23.87
2022-07-28T19:30:33.614Z,23.93
2022-07-28T19:33:00.415Z,24.08
2022-07-28T19:35:27.257Z,23.91
2022-07-28T19:37:55.481Z,23.32
2022-07-28T19:40:22.369Z,23.43
2022-07-28T19:42:49.003Z,23.67
2022-07-28T19:45:16.907Z,24.03
2022-07-28T19:47:43.644Z,23.42
2022-07-28T19:50:10.388Z,23.51
2022-07-28T19:52:39.930Z,23.63
2022-07-28T19:55:07.965Z,23.97
2022-07-28T19:57:35.627Z,23.93
2022-07-28T20:00:02.422Z,23.74
2022-07-28T20:02:29.447Z,23.87
2022-07-28T20:04:56.205Z,24.08
2022-07-28T20:07:23.973Z,24.03
2022-07-28T20:09:50.797Z,23.70
2022-07-28T20:12:17.930Z,23.00
2022-07-28T20:14:44.674Z,23.02
2022-07-28T20:17:24.401Z,22.67
2022-07-28T20:19:58.031Z,22.77
2022-07-28T20:22:25.254Z,22.71
2022-07-28T20:24:52.146Z,22.40
2022-07-28T20:27:18.841Z,22.88
2022-07-28T20:29:46.014Z,22.63
2022-07-28T20:32:12.704Z,22.66
2022-07-28T20:34:39.833Z,22.97
2022-07-28T20:37:06.490Z,23.50
2022-07-28T20:39:53.151Z,23.56
2022-07-28T20:42:19.845Z,24.04
2022-07-28T20:44:48.917Z,23.00
2022-07-28T20:47:18.866Z,23.08
2022-07-28T20:49:45.531Z,23.61
2022-07-28T20:52:12.500Z,23.76
2022-07-28T20:54:39.359Z,24.14
2022-07-28T20:57:06.108Z,24.19
2022-07-28T20:59:32.928Z,23.75
2022-07-28T21:01:59.715Z,23.64
2022-07-28T21:04:26.639Z,23.62
2022-07-28T21:07:00.836Z,23.33
2022-07-28T21:09:29.151Z,23.13
2022-07-28T21:11:56.146Z,23.44
2022-07-28T21:14:22.813Z,23.81
2022-07-28T21:16:49.790Z,24.34
2022-07-28T21:19:16.636Z,24.35
2022-07-28T21:21:43.326Z,24.35
2022-07-28T21:24:10.019Z,24.40
2022-07-28T21:26:36.706Z,24.51
2022-07-28T21:29:12.800Z,24.64
2022-07-28T21:32:02.172Z,24.91
2022-07-28T21:34:31.040Z,24.79
2022-07-28T21:36:58.369Z,24.59
2022-07-28T21:39:25.574Z,24.27
2022-07-28T21:41:52.459Z,24.56
2022-07-28T21:44:19.311Z,24.68
2022-07-28T21:46:45.963Z,24.87
2022-07-28T21:49:12.936Z,24.85
2022-07-28T21:51:41.157Z,24.50
2022-07-28T21:54:11.155Z,24.22
2022-07-28T21:56:37.875Z,24.17
2022-07-28T21:59:04.725Z,24.17
2022-07-28T22:01:31.578Z,24.50
2022-07-28T22:03:58.393Z,24.54
2022-07-28T22:06:25.087Z,24.73
2022-07-28T22:08:54.063Z,24.83
2022-07-28T22:11:22.624Z,24.83
2022-07-28T22:13:49.741Z,24.58
2022-07-28T22:16:16.609Z,24.31
2022-07-28T22:18:43.342Z,24.35
2022-07-28T22:21:09.991Z,24.22
2022-07-28T22:23:36.642Z,24.23
2022-07-28T22:26:03.747Z,24.07
2022-07-28T22:28:30.834Z,24.30
2022-07-28T22:30:59.033Z,24.50
2022-07-28T22:33:39.098Z,24.62
2022-07-28T22:36:07.738Z,24.48
2022-07-28T22:38:34.556Z,24.39
2022-07-28T22:41:01.259Z,23.97
2022-07-28T22:43:28.016Z,23.77
2022-07-28T22:45:54.705Z,23.95
2022-07-28T22:48:21.412Z,22.77
2022-07-28T22:50:48.137Z,23.02
2022-07-28T22:53:14.898Z,23.27
2022-07-28T22:58:25.737Z,23.27
2022-07-28T23:00:52.580Z,23.41
2022-07-28T23:03:19.512Z,23.41
2022-07-28T23:05:46.503Z,22.18
2022-07-28T23:08:13.448Z,22.27
2022-07-28T23:10:40.271Z,22.57
2022-07-28T23:13:07.219Z,22.65
2022-07-28T23:15:40.195Z,22.55
2022-07-28T23:18:11.657Z,22.78
2022-07-28T23:20:39.578Z,22.95
2022-07-28T23:23:07.260Z,22.94
2022-07-28T23:25:37.080Z,22.99
2022-07-28T23:28:03.955Z,22.98
2022-07-28T23:30:30.750Z,22.98
2022-07-28T23:32:57.718Z,23.04
2022-07-28T23:35:24.686Z,22.55
2022-07-28T23:37:51.472Z,22.24
2022-07-28T23:40:18.237Z,22.39
2022-07-28T23:42:45.004Z,22.89
2022-07-28T23:45:11.943Z,21.58
2022-07-28T23:47:38.895Z,21.72
2022-07-28T23:50:06.375Z,21.17
2022-07-28T23:52:33.348Z,21.08
2022-07-28T23:55:00.148Z,21.72
2022-07-28T23:57:30.764Z,22.31
2022-07-28T23:59:59.319Z,21.59
